Time;durP1;ratioP1;P1;durP2;ratioP2;P2;SDS_P1;SDS_P2;PMS_P1;PMS_P2;Temp;Humidity;BMP_temperature;BMP_pressure;BME280_temperature;BME280_humidity;BME280_pressure;Samples;Min_cycle;Max_cycle;Signal;HPM_P1;HPM_P2
2021/07/30 00:01:17;;;;;;;4.90;3.47;;;;;;;;;;5033546;28;20528;-54
2021/07/30 00:03:45;;;;;;;4.43;2.83;;;;;;;;;;5033262;28;20460;-56
2021/07/30 00:06:13;;;;;;;5.57;3.00;;;;;;;;;;5033260;28;20510;-55
2021/07/30 00:08:40;;;;;;;4.60;3.10;;;;;;;;;;5033442;28;20514;-54
2021/07/30 00:11:08;;;;;;;5.93;3.20;;;;;;;;;;5033535;28;20929;-55
2021/07/30 00:13:35;;;;;;;4.10;2.83;;;;;;;;;;5033068;28;20984;-53
2021/07/30 00:16:03;;;;;;;5.03;3.63;;;;;;;;;;5033084;28;20445;-53
2021/07/30 00:18:30;;;;;;;6.97;3.60;;;;;;;;;;5033146;28;20542;-53
2021/07/30 00:20:58;;;;;;;4.13;2.93;;;;;;;;;;5032871;28;20494;-54
2021/07/30 00:23:26;;;;;;;4.97;3.03;;;;;;;;;;5033938;28;20445;-54
2021/07/30 00:25:53;;;;;;;6.30;3.40;;;;;;;;;;5036979;28;20449;-54
2021/07/30 00:28:21;;;;;;;3.60;3.07;;;;;;;;;;5037481;28;20472;-56
2021/07/30 00:30:48;;;;;;;6.90;3.00;;;;;;;;;;5037304;28;20452;-55
2021/07/30 00:33:15;;;;;;;8.27;3.57;;;;;;;;;;5036861;28;20958;-55
2021/07/30 00:35:42;;;;;;;5.20;3.33;;;;;;;;;;5037068;28;20514;-55
2021/07/30 00:38:11;;;;;;;3.53;3.20;;;;;;;;;;5036812;28;20518;-55
2021/07/30 00:40:38;;;;;;;5.37;3.20;;;;;;;;;;5037044;28;20441;-55
2021/07/30 00:43:06;;;;;;;7.07;3.53;;;;;;;;;;5036959;28;20445;-55
2021/07/30 00:45:33;;;;;;;3.93;3.47;;;;;;;;;;5036773;28;20481;-55
2021/07/30 00:48:01;;;;;;;10.10;3.40;;;;;;;;;;5036440;28;20477;-55
2021/07/30 00:50:28;;;;;;;6.10;3.10;;;;;;;;;;5036775;28;20515;-55
2021/07/30 00:52:55;;;;;;;7.23;3.50;;;;;;;;;;5036695;28;20480;-55
2021/07/30 00:55:24;;;;;;;4.10;3.23;;;;;;;;;;5036788;28;20452;-55
2021/07/30 00:57:52;;;;;;;6.40;3.10;;;;;;;;;;5036524;28;20531;-55
2021/07/30 01:00:20;;;;;;;5.80;3.23;;;;;;;;;;5036213;28;20440;-55
2021/07/30 01:02:47;;;;;;;5.40;3.27;;;;;;;;;;5036509;28;20519;-55
2021/07/30 01:05:15;;;;;;;5.50;3.80;;;;;;;;;;5036181;28;20861;-55
2021/07/30 01:07:42;;;;;;;4.63;3.60;;;;;;;;;;5036610;28;20468;-55
2021/07/30 01:10:10;;;;;;;4.93;3.40;;;;;;;;;;5036516;28;20499;-55
2021/07/30 01:12:38;;;;;;;4.53;3.17;;;;;;;;;;5036320;28;20452;-55
2021/07/30 01:15:07;;;;;;;6.63;3.57;;;;;;;;;;5036124;28;20445;-55
2021/07/30 01:17:34;;;;;;;3.97;3.57;;;;;;;;;;5035769;28;20976;-55
2021/07/30 01:20:01;;;;;;;7.40;3.50;;;;;;;;;;5036183;28;20503;-54
2021/07/30 01:22:29;;;;;;;7.73;3.23;;;;;;;;;;5035849;28;20925;-54
2021/07/30 01:24:58;;;;;;;6.00;3.30;;;;;;;;;;5036130;28;20506;-53
2021/07/30 01:27:25;;;;;;;6.03;4.23;;;;;;;;;;5035985;28;20472;-55
2021/07/30 01:29:52;;;;;;;4.33;3.53;;;;;;;;;;5036489;28;20467;-53
2021/07/30 01:32:20;;;;;;;4.90;3.23;;;;;;;;;;5035939;28;20445;-55
2021/07/30 01:34:47;;;;;;;5.83;3.70;;;;;;;;;;5035240;28;20508;-55
2021/07/30 01:37:14;;;;;;;5.83;2.93;;;;;;;;;;5035769;28;20534;-55
2021/07/30 01:39:42;;;;;;;9.00;3.50;;;;;;;;;;5035869;28;20475;-55
2021/07/30 01:42:10;;;;;;;4.37;3.30;;;;;;;;;;5035458;28;20437;-55
2021/07/30 01:44:38;;;;;;;5.63;3.43;;;;;;;;;;5035703;28;20445;-55
2021/07/30 01:47:06;;;;;;;9.03;3.80;;;;;;;;;;5036494;28;20480;-55
2021/07/30 01:49:33;;;;;;;5.60;3.40;;;;;;;;;;5035397;28;20491;-55
2021/07/30 01:52:01;;;;;;;9.00;3.70;;;;;;;;;;5035517;28;20445;-54
2021/07/30 01:54:28;;;;;;;5.57;3.53;;;;;;;;;;5035444;28;20480;-54
2021/07/30 01:56:55;;;;;;;7.80;4.00;;;;;;;;;;5035437;28;20809;-53
2021/07/30 01:59:24;;;;;;;4.30;3.40;;;;;;;;;;5035406;28;20495;-53
2021/07/30 02:01:51;;;;;;;8.30;3.90;;;;;;;;;;5035059;28;20943;-54
2021/07/30 02:04:19;;;;;;;5.90;3.97;;;;;;;;;;5035327;28;20445;-54
2021/07/30 02:06:46;;;;;;;6.77;3.83;;;;;;;;;;5035251;28;20556;-53
2021/07/30 02:09:13;;;;;;;6.17;3.93;;;;;;;;;;5034903;28;20449;-54
2021/07/30 02:11:42;;;;;;;6.37;4.80;;;;;;;;;;5034899;28;20441;-55
2021/07/30 02:14:17;;;;;;;7.27;4.17;;;;;;;;;;5035085;28;20476;-54
2021/07/30 02:16:47;;;;;;;6.70;3.67;;;;;;;;;;5035140;28;20464;-55
2021/07/30 02:19:14;;;;;;;8.70;4.00;;;;;;;;;;5035072;28;20445;-54
2021/07/30 02:21:41;;;;;;;7.00;4.40;;;;;;;;;;5034976;28;20449;-54
2021/07/30 02:24:09;;;;;;;5.13;3.97;;;;;;;;;;5035001;28;20444;-54
2021/07/30 02:26:36;;;;;;;6.77;4.23;;;;;;;;;;5034837;28;20498;-54
2021/07/30 02:29:04;;;;;;;8.27;4.30;;;;;;;;;;5034597;28;20453;-54
2021/07/30 02:31:32;;;;;;;7.50;4.50;;;;;;;;;;5034487;28;20441;-54
2021/07/30 02:34:00;;;;;;;7.13;4.33;;;;;;;;;;5034580;28;21054;-54
2021/07/30 02:36:28;;;;;;;7.83;3.97;;;;;;;;;;5034791;28;20445;-55
2021/07/30 02:38:55;;;;;;;7.43;4.50;;;;;;;;;;5034531;28;20444;-54
2021/07/30 02:41:22;;;;;;;6.03;4.30;;;;;;;;;;5034817;28;20441;-55
2021/07/30 02:43:50;;;;;;;7.47;5.23;;;;;;;;;;5034544;28;20441;-55
2021/07/30 02:46:17;;;;;;;4.70;4.03;;;;;;;;;;5033916;28;20943;-55
2021/07/30 02:48:44;;;;;;;7.03;4.30;;;;;;;;;;5034058;28;20551;-54
2021/07/30 02:51:13;;;;;;;6.33;4.10;;;;;;;;;;5034496;28;20484;-54
2021/07/30 02:53:40;;;;;;;5.37;4.60;;;;;;;;;;5034020;28;20477;-54
2021/07/30 02:56:08;;;;;;;6.77;5.20;;;;;;;;;;5034162;28;20499;-54
2021/07/30 02:58:36;;;;;;;7.93;4.80;;;;;;;;;;5034161;28;20465;-54
2021/07/30 03:01:03;;;;;;;5.17;4.17;;;;;;;;;;5034231;28;20453;-53
2021/07/30 03:03:31;;;;;;;7.23;4.63;;;;;;;;;;5034167;28;20445;-54
2021/07/30 03:05:58;;;;;;;8.57;5.03;;;;;;;;;;5034063;28;20498;-54
2021/07/30 03:08:27;;;;;;;6.10;4.80;;;;;;;;;;5034100;28;20491;-54
2021/07/30 03:10:54;;;;;;;4.70;4.27;;;;;;;;;;5034150;28;20445;-54
2021/07/30 03:13:21;;;;;;;5.57;4.93;;;;;;;;;;5033967;28;20472;-54
2021/07/30 03:15:52;;;;;;;11.20;5.00;;;;;;;;;;5033662;28;20503;-54
2021/07/30 03:18:20;;;;;;;7.00;4.20;;;;;;;;;;5033619;28;20972;-54
2021/07/30 03:20:47;;;;;;;7.37;4.37;;;;;;;;;;5033899;28;20494;-54
2021/07/30 03:23:14;;;;;;;5.57;4.47;;;;;;;;;;5033678;28;20789;-54
2021/07/30 03:25:43;;;;;;;7.07;5.10;;;;;;;;;;5033662;28;20479;-54
2021/07/30 03:28:10;;;;;;;5.90;5.20;;;;;;;;;;5033446;28;20469;-54
2021/07/30 03:30:37;;;;;;;10.07;4.77;;;;;;;;;;5033863;28;20933;-55
2021/07/30 03:33:04;;;;;;;7.40;4.70;;;;;;;;;;5033360;28;20869;-54
2021/07/30 03:35:32;;;;;;;6.07;5.00;;;;;;;;;;5033373;28;20933;-54
2021/07/30 03:37:59;;;;;;;9.77;4.77;;;;;;;;;;5033208;28;20461;-54
2021/07/30 03:40:26;;;;;;;7.37;5.07;;;;;;;;;;5033165;28;20995;-54
2021/07/30 03:42:55;;;;;;;8.73;5.17;;;;;;;;;;5033149;28;20499;-54
2021/07/30 03:45:22;;;;;;;8.30;4.17;;;;;;;;;;5033070;28;20441;-54
2021/07/30 03:47:50;;;;;;;7.67;4.50;;;;;;;;;;5032987;28;20477;-54
2021/07/30 03:50:17;;;;;;;6.30;4.97;;;;;;;;;;5033609;28;20456;-54
2021/07/30 03:52:44;;;;;;;7.43;4.90;;;;;;;;;;5033024;28;21003;-54
2021/07/30 03:55:11;;;;;;;7.37;4.47;;;;;;;;;;5033146;28;20476;-54
2021/07/30 03:57:39;;;;;;;7.57;5.07;;;;;;;;;;5033138;28;20518;-54
2021/07/30 04:00:08;;;;;;;8.50;4.83;;;;;;;;;;5033112;28;20793;-54
2021/07/30 04:02:35;;;;;;;6.60;5.60;;;;;;;;;;5032901;28;20449;-54
2021/07/30 04:08:25;;;;;;;10.27;5.00;;;;;;;;;;5091104;27;20549;-53
2021/07/30 04:10:52;;;;;;;6.37;4.37;;;;;;;;;;5090306;28;20946;-53
2021/07/30 04:13:20;;;;;;;10.43;6.03;;;;;;;;;;5090677;28;20500;-51
2021/07/30 04:15:47;;;;;;;6.30;4.80;;;;;;;;;;5090553;28;20538;-53
2021/07/30 04:18:14;;;;;;;11.90;5.37;;;;;;;;;;5090108;28;20524;-54
2021/07/30 04:20:41;;;;;;;5.50;4.73;;;;;;;;;;5090452;28;20446;-54
2021/07/30 04:23:09;;;;;;;11.00;5.00;;;;;;;;;;5090406;28;20462;-54
2021/07/30 04:25:41;;;;;;;5.23;4.50;;;;;;;;;;5090292;28;20442;-54
2021/07/30 04:28:09;;;;;;;5.93;4.50;;;;;;;;;;5090137;28;20610;-54
2021/07/30 04:30:36;;;;;;;9.53;6.33;;;;;;;;;;5090107;28;20496;-55
2021/07/30 04:33:03;;;;;;;6.97;4.00;;;;;;;;;;5090075;28;20442;-55
2021/07/30 04:35:31;;;;;;;9.80;4.37;;;;;;;;;;5090198;28;20435;-55
2021/07/30 04:37:58;;;;;;;5.00;4.20;;;;;;;;;;5090086;28;20466;-55
2021/07/30 04:40:25;;;;;;;4.40;3.77;;;;;;;;;;5089853;28;20443;-55
2021/07/30 04:42:55;;;;;;;5.60;3.73;;;;;;;;;;5090026;28;20442;-56
2021/07/30 04:45:23;;;;;;;4.87;3.40;;;;;;;;;;5090108;28;20556;-55
2021/07/30 04:47:50;;;;;;;8.10;3.83;;;;;;;;;;5089880;28;20490;-55
2021/07/30 04:50:17;;;;;;;7.03;3.90;;;;;;;;;;5089632;28;20496;-55
2021/07/30 04:52:45;;;;;;;6.00;4.13;;;;;;;;;;5089576;28;20489;-55
2021/07/30 04:55:12;;;;;;;6.87;3.63;;;;;;;;;;5089580;28;20951;-55
2021/07/30 04:57:39;;;;;;;7.23;4.50;;;;;;;;;;5089766;28;20463;-55
2021/07/30 05:00:09;;;;;;;6.80;3.70;;;;;;;;;;5089426;28;20930;-55
2021/07/30 05:02:36;;;;;;;6.10;3.77;;;;;;;;;;5089262;28;20793;-54
2021/07/30 05:05:03;;;;;;;5.03;3.47;;;;;;;;;;5089745;28;20448;-55
2021/07/30 05:07:30;;;;;;;6.43;3.23;;;;;;;;;;5089219;28;20581;-55
2021/07/30 05:09:58;;;;;;;6.80;3.80;;;;;;;;;;5089300;28;20449;-55
2021/07/30 05:12:25;;;;;;;5.03;3.50;;;;;;;;;;5089592;28;20494;-55
2021/07/30 05:14:52;;;;;;;5.50;3.83;;;;;;;;;;5089307;28;20503;-57
2021/07/30 05:17:21;;;;;;;10.17;3.97;;;;;;;;;;5089432;28;20510;-56
2021/07/30 05:19:48;;;;;;;6.83;4.10;;;;;;;;;;5075234;28;20454;-57
2021/07/30 05:22:16;;;;;;;8.77;3.70;;;;;;;;;;5075927;28;20446;-57
2021/07/30 05:24:43;;;;;;;8.10;4.03;;;;;;;;;;5075715;28;20446;-55
2021/07/30 05:27:10;;;;;;;6.67;3.63;;;;;;;;;;5075906;28;20482;-56
2021/07/30 05:29:37;;;;;;;4.27;3.33;;;;;;;;;;5075865;28;20502;-56
2021/07/30 05:32:05;;;;;;;6.67;3.53;;;;;;;;;;5075904;28;20957;-57
2021/07/30 05:34:35;;;;;;;5.83;3.60;;;;;;;;;;5075964;28;20447;-57
2021/07/30 05:37:02;;;;;;;4.70;3.90;;;;;;;;;;5075464;28;20487;-56
2021/07/30 05:39:31;;;;;;;6.40;3.80;;;;;;;;;;5075811;28;20441;-57
2021/07/30 05:41:58;;;;;;;5.37;3.50;;;;;;;;;;5075010;28;20476;-56
2021/07/30 05:44:26;;;;;;;5.40;3.23;;;;;;;;;;5076432;28;20460;-57
2021/07/30 05:46:53;;;;;;;4.67;3.80;;;;;;;;;;5075261;28;20899;-57
2021/07/30 05:49:20;;;;;;;6.90;3.73;;;;;;;;;;5075347;28;20498;-57
2021/07/30 05:51:49;;;;;;;3.93;3.43;;;;;;;;;;5075389;28;20505;-56
2021/07/30 05:54:16;;;;;;;7.37;3.80;;;;;;;;;;5075427;28;20447;-56
2021/07/30 05:56:43;;;;;;;7.20;4.10;;;;;;;;;;5076112;28;20516;-57
2021/07/30 05:59:10;;;;;;;5.90;3.27;;;;;;;;;;5075552;28;20503;-56
2021/07/30 06:01:38;;;;;;;5.63;3.00;;;;;;;;;;5075151;28;20451;-56
2021/07/30 06:04:05;;;;;;;6.43;4.10;;;;;;;;;;5075094;28;20577;-56
2021/07/30 06:06:33;;;;;;;6.40;3.77;;;;;;;;;;5075927;28;20463;-56
2021/07/30 06:09:02;;;;;;;6.87;3.87;;;;;;;;;;5075128;28;20543;-55
2021/07/30 06:11:29;;;;;;;8.83;3.80;;;;;;;;;;5075550;28;20477;-56
2021/07/30 06:13:56;;;;;;;8.90;4.00;;;;;;;;;;5075666;28;20521;-55
2021/07/30 06:16:23;;;;;;;4.97;3.77;;;;;;;;;;5074712;28;21019;-56
2021/07/30 06:18:50;;;;;;;5.40;3.73;;;;;;;;;;5075125;28;20506;-56
2021/07/30 06:21:20;;;;;;;4.80;3.60;;;;;;;;;;5074911;28;20448;-56
2021/07/30 06:23:48;;;;;;;4.80;3.50;;;;;;;;;;5074600;28;20537;-56
2021/07/30 06:26:16;;;;;;;7.67;3.57;;;;;;;;;;5074414;28;20947;-55
2021/07/30 06:28:43;;;;;;;6.33;4.30;;;;;;;;;;5074614;28;20477;-56
2021/07/30 06:31:11;;;;;;;8.30;3.63;;;;;;;;;;5073477;28;20964;-57
2021/07/30 06:33:38;;;;;;;9.10;3.80;;;;;;;;;;5074372;28;20939;-55
2021/07/30 06:36:07;;;;;;;4.70;3.27;;;;;;;;;;5074275;28;20451;-55
2021/07/30 06:38:34;;;;;;;5.03;3.37;;;;;;;;;;5074515;28;20464;-55
2021/07/30 06:41:02;;;;;;;6.60;3.83;;;;;;;;;;5073703;28;20454;-56
2021/07/30 06:43:30;;;;;;;4.20;3.53;;;;;;;;;;5073612;28;20440;-55
2021/07/30 06:46:00;;;;;;;8.83;4.07;;;;;;;;;;5074205;28;20448;-54
2021/07/30 06:48:28;;;;;;;5.57;3.27;;;;;;;;;;5074112;28;20573;-55
2021/07/30 06:50:56;;;;;;;7.60;3.67;;;;;;;;;;5073720;28;20443;-55
2021/07/30 06:53:23;;;;;;;7.70;3.30;;;;;;;;;;5074017;28;20447;-55
2021/07/30 06:55:51;;;;;;;6.50;3.57;;;;;;;;;;5073716;28;20877;-55
2021/07/30 06:58:18;;;;;;;6.40;3.43;;;;;;;;;;5073679;28;20510;-55
2021/07/30 07:00:46;;;;;;;8.73;3.80;;;;;;;;;;5073540;28;20927;-55
2021/07/30 07:03:14;;;;;;;4.50;3.27;;;;;;;;;;5073908;28;20448;-55
2021/07/30 07:05:41;;;;;;;6.73;3.73;;;;;;;;;;5074309;28;20936;-55
2021/07/30 07:08:08;;;;;;;6.40;3.40;;;;;;;;;;5073253;28;21028;-55
2021/07/30 07:10:36;;;;;;;9.70;3.63;;;;;;;;;;5073967;28;20456;-55
2021/07/30 07:13:03;;;;;;;8.80;3.70;;;;;;;;;;5073480;28;20449;-55
2021/07/30 07:15:31;;;;;;;5.10;3.87;;;;;;;;;;5074346;28;20444;-54
2021/07/30 07:17:59;;;;;;;6.80;3.90;;;;;;;;;;5073437;28;20455;-54
2021/07/30 07:20:26;;;;;;;6.60;2.80;;;;;;;;;;5073425;28;20452;-55
2021/07/30 07:22:54;;;;;;;6.43;3.40;;;;;;;;;;5073548;28;20453;-56
2021/07/30 07:25:21;;;;;;;6.50;4.00;;;;;;;;;;5073898;28;20502;-55
2021/07/30 07:27:48;;;;;;;7.10;3.40;;;;;;;;;;5073840;28;20534;-55
2021/07/30 07:30:15;;;;;;;5.20;4.07;;;;;;;;;;5073295;28;21004;-54
2021/07/30 07:32:43;;;;;;;6.97;3.20;;;;;;;;;;5073182;28;20847;-55
2021/07/30 07:35:11;;;;;;;7.43;3.37;;;;;;;;;;5073036;28;20922;-55
2021/07/30 07:37:39;;;;;;;7.27;3.30;;;;;;;;;;5073246;28;20469;-55
2021/07/30 07:40:07;;;;;;;9.73;3.23;;;;;;;;;;5072986;28;20450;-55
2021/07/30 07:42:34;;;;;;;8.30;3.60;;;;;;;;;;5072420;28;20945;-55
2021/07/30 07:45:02;;;;;;;6.80;3.63;;;;;;;;;;5072925;28;20450;-55
2021/07/30 07:47:29;;;;;;;5.97;3.60;;;;;;;;;;5072786;28;20478;-55
2021/07/30 07:49:56;;;;;;;12.47;4.53;;;;;;;;;;5071775;22;20494;-58
2021/07/30 07:52:25;;;;;;;6.30;3.10;;;;;;;;;;5033297;28;20450;-58
2021/07/30 07:54:52;;;;;;;7.10;3.20;;;;;;;;;;5033349;28;20520;-58
2021/07/30 07:57:19;;;;;;;6.40;2.90;;;;;;;;;;5033135;28;20451;-58
2021/07/30 07:59:46;;;;;;;6.37;3.60;;;;;;;;;;5032699;28;20471;-58
2021/07/30 08:02:14;;;;;;;4.33;3.20;;;;;;;;;;5033109;28;20450;-58
2021/07/30 08:04:41;;;;;;;7.40;3.47;;;;;;;;;;5032644;28;20443;-58
2021/07/30 08:07:10;;;;;;;8.30;3.20;;;;;;;;;;5032968;28;20501;-58
2021/07/30 08:09:39;;;;;;;7.20;3.53;;;;;;;;;;5032343;28;20966;-58
2021/07/30 08:12:06;;;;;;;8.90;3.20;;;;;;;;;;5032591;28;20976;-57
2021/07/30 08:14:33;;;;;;;5.90;3.37;;;;;;;;;;5033427;28;20451;-58
2021/07/30 08:17:00;;;;;;;6.03;3.30;;;;;;;;;;5032851;28;20498;-57
2021/07/30 08:19:28;;;;;;;5.33;3.50;;;;;;;;;;5032478;28;20811;-58
2021/07/30 08:21:55;;;;;;;5.97;3.57;;;;;;;;;;5032657;28;20932;-59
2021/07/30 08:24:22;;;;;;;4.70;3.37;;;;;;;;;;5032954;28;20444;-59
2021/07/30 08:26:51;;;;;;;5.57;3.20;;;;;;;;;;5033030;28;20867;-57
2021/07/30 08:29:18;;;;;;;5.37;3.57;;;;;;;;;;5032497;28;20534;-58
2021/07/30 08:31:45;;;;;;;5.30;3.50;;;;;;;;;;5038341;28;21005;-57
2021/07/30 08:34:12;;;;;;;8.00;3.67;;;;;;;;;;5040182;28;20506;-58
2021/07/30 08:36:40;;;;;;;6.20;3.70;;;;;;;;;;5035325;28;20451;-58
2021/07/30 08:39:07;;;;;;;12.03;3.37;;;;;;;;;;5034678;28;20460;-57
2021/07/30 08:41:35;;;;;;;5.57;3.00;;;;;;;;;;5033514;28;20507;-56
2021/07/30 08:44:04;;;;;;;4.73;3.40;;;;;;;;;;5032788;28;20859;-59
2021/07/30 08:46:31;;;;;;;6.60;3.70;;;;;;;;;;5032672;28;20537;-57
2021/07/30 08:48:59;;;;;;;5.30;3.50;;;;;;;;;;5032441;28;20554;-58
2021/07/30 08:51:27;;;;;;;8.27;3.03;;;;;;;;;;5032603;28;20503;-57
2021/07/30 08:53:54;;;;;;;4.90;3.70;;;;;;;;;;5034430;28;20448;-57
2021/07/30 08:56:22;;;;;;;5.27;3.20;;;;;;;;;;5036963;28;20452;-58
2021/07/30 08:58:49;;;;;;;3.70;3.07;;;;;;;;;;5035848;28;20520;-57
2021/07/30 09:01:17;;;;;;;5.23;3.30;;;;;;;;;;5036416;28;20441;-59
2021/07/30 09:03:45;;;;;;;8.30;3.53;;;;;;;;;;5036027;28;20446;-58
2021/07/30 09:06:23;;;;;;;5.63;3.60;;;;;;;;;;5036288;28;20478;-59
2021/07/30 09:09:05;;;;;;;6.17;3.23;;;;;;;;;;5035730;28;20481;-57
2021/07/30 09:11:33;;;;;;;5.47;3.60;;;;;;;;;;5035648;28;20486;-58
2021/07/30 09:14:01;;;;;;;8.47;3.40;;;;;;;;;;5035705;28;20849;-59
2021/07/30 09:16:30;;;;;;;6.20;3.30;;;;;;;;;;5036032;28;20449;-58
2021/07/30 09:19:05;;;;;;;5.20;3.20;;;;;;;;;;5035958;28;20461;-59
2021/07/30 09:21:33;;;;;;;6.17;3.17;;;;;;;;;;5035740;28;20526;-58
2021/07/30 09:24:01;;;;;;;6.40;3.13;;;;;;;;;;5035616;28;20942;-58
2021/07/30 09:26:39;;;;;;;7.03;3.33;;;;;;;;;;5035584;28;20935;-59
2021/07/30 09:29:07;;;;;;;7.53;3.17;;;;;;;;;;5035509;28;20566;-58
2021/07/30 09:31:46;;;;;;;4.77;3.00;;;;;;;;;;5037710;28;20512;-58
2021/07/30 09:34:14;;;;;;;7.93;3.37;;;;;;;;;;5037864;28;20427;-58
2021/07/30 09:36:42;;;;;;;8.60;3.43;;;;;;;;;;5037472;28;20449;-58
2021/07/30 09:39:09;;;;;;;13.20;2.83;;;;;;;;;;5038285;28;20491;-58
2021/07/30 09:41:37;;;;;;;4.83;2.70;;;;;;;;;;5037945;28;20782;-59
2021/07/30 09:44:06;;;;;;;3.37;3.03;;;;;;;;;;5036707;28;20458;-59
2021/07/30 09:46:33;;;;;;;5.10;3.10;;;;;;;;;;5036221;28;20881;-59
2021/07/30 09:49:02;;;;;;;4.87;2.80;;;;;;;;;;5035644;28;20489;-58
2021/07/30 09:51:29;;;;;;;6.30;3.40;;;;;;;;;;5035918;28;20460;-59
2021/07/30 09:53:58;;;;;;;3.50;3.10;;;;;;;;;;5035711;28;20453;-59
2021/07/30 09:56:26;;;;;;;5.47;3.20;;;;;;;;;;5035544;28;20499;-58
2021/07/30 09:58:56;;;;;;;5.83;3.10;;;;;;;;;;5035236;28;21044;-57
2021/07/30 10:01:24;;;;;;;7.10;3.13;;;;;;;;;;5036439;28;20527;-58
2021/07/30 10:03:53;;;;;;;5.97;3.03;;;;;;;;;;5037315;28;20802;-59
2021/07/30 10:06:22;;;;;;;5.43;3.10;;;;;;;;;;5036419;28;20573;-58
2021/07/30 10:08:50;;;;;;;7.13;3.10;;;;;;;;;;5035791;28;20560;-60
2021/07/30 10:11:17;;;;;;;5.10;2.80;;;;;;;;;;5035850;28;20451;-58
2021/07/30 10:13:49;;;;;;;5.20;3.30;;;;;;;;;;5035961;28;20931;-59
2021/07/30 10:16:20;;;;;;;5.77;3.60;;;;;;;;;;5036633;28;20481;-59
2021/07/30 10:18:49;;;;;;;4.40;3.07;;;;;;;;;;5035457;28;20461;-59
2021/07/30 10:21:19;;;;;;;6.27;2.80;;;;;;;;;;5035758;28;20470;-59
2021/07/30 10:23:50;;;;;;;4.00;2.40;;;;;;;;;;5035242;28;20941;-59
2021/07/30 10:26:19;;;;;;;5.20;2.57;;;;;;;;;;5035069;28;20435;-56
2021/07/30 10:28:46;;;;;;;4.67;3.07;;;;;;;;;;5034732;28;20899;-59
2021/07/30 10:31:15;;;;;;;3.23;2.30;;;;;;;;;;5034358;28;20549;-58
2021/07/30 10:33:52;;;;;;;3.63;2.43;;;;;;;;;;5034060;28;20451;-59
2021/07/30 10:36:38;;;;;;;4.17;2.63;;;;;;;;;;5034630;28;20443;-61
2021/07/30 10:39:23;;;;;;;4.03;2.40;;;;;;;;;;5034475;28;20469;-58
2021/07/30 10:42:13;;;;;;;4.20;2.30;;;;;;;;;;5035063;28;20488;-60
2021/07/30 10:44:59;;;;;;;5.00;2.57;;;;;;;;;;5035095;28;20480;-59
2021/07/30 10:47:26;;;;;;;4.10;2.60;;;;;;;;;;5034692;28;20562;-60
2021/07/30 10:49:53;;;;;;;5.20;2.73;;;;;;;;;;5034116;28;21057;-59
2021/07/30 10:52:31;;;;;;;4.80;2.00;;;;;;;;;;5034925;28;20445;-57
2021/07/30 10:54:58;;;;;;;5.40;2.20;;;;;;;;;;5034330;28;20432;-58
2021/07/30 10:57:44;;;;;;;7.13;2.17;;;;;;;;;;5034893;28;20445;-59
2021/07/30 11:00:12;;;;;;;4.00;2.53;;;;;;;;;;5035340;28;21046;-59
2021/07/30 11:02:55;;;;;;;4.17;2.30;;;;;;;;;;5044901;28;20474;-60
2021/07/30 11:05:22;;;;;;;3.47;2.70;;;;;;;;;;5036527;28;20438;-59
2021/07/30 11:07:49;;;;;;;4.83;2.70;;;;;;;;;;5034444;28;20444;-59
2021/07/30 11:10:18;;;;;;;3.43;2.43;;;;;;;;;;5033764;28;20559;-59
2021/07/30 11:12:45;;;;;;;4.93;2.43;;;;;;;;;;5034020;28;20541;-59
2021/07/30 11:15:14;;;;;;;5.10;2.37;;;;;;;;;;5033888;28;20491;-59
2021/07/30 11:17:42;;;;;;;4.07;2.27;;;;;;;;;;5033586;28;20484;-58
2021/07/30 11:20:09;;;;;;;4.70;2.10;;;;;;;;;;5033667;28;20473;-58
2021/07/30 11:22:39;;;;;;;4.57;2.30;;;;;;;;;;5033760;28;20502;-59
2021/07/30 11:25:11;;;;;;;6.90;2.37;;;;;;;;;;5033563;28;20537;-59
2021/07/30 11:27:39;;;;;;;3.83;1.80;;;;;;;;;;5033272;28;20495;-59
2021/07/30 11:30:07;;;;;;;4.00;1.87;;;;;;;;;;5033540;28;20514;-60
2021/07/30 11:32:35;;;;;;;3.00;2.27;;;;;;;;;;5033773;28;20445;-59
2021/07/30 11:35:08;;;;;;;3.93;2.20;;;;;;;;;;5033783;28;20465;-59
2021/07/30 11:37:36;;;;;;;2.40;2.03;;;;;;;;;;5040480;28;20436;-59
2021/07/30 11:40:03;;;;;;;4.13;2.37;;;;;;;;;;5035465;28;20548;-59
2021/07/30 11:42:32;;;;;;;4.50;2.57;;;;;;;;;;5034796;28;20498;-60
2021/07/30 11:45:01;;;;;;;6.43;2.50;;;;;;;;;;5037881;28;20554;-59
2021/07/30 11:47:29;;;;;;;4.53;2.00;;;;;;;;;;5034723;28;20462;-59
2021/07/30 11:50:05;;;;;;;3.03;2.23;;;;;;;;;;5033805;28;20496;-58
2021/07/30 11:52:32;;;;;;;3.40;2.00;;;;;;;;;;5033780;28;20436;-58
2021/07/30 11:55:15;;;;;;;2.10;1.90;;;;;;;;;;5033979;28;20864;-59
2021/07/30 11:57:43;;;;;;;3.27;2.10;;;;;;;;;;5033534;28;20509;-59
2021/07/30 12:00:10;;;;;;;3.27;2.20;;;;;;;;;;5033108;28;20464;-58
2021/07/30 12:02:37;;;;;;;4.70;2.13;;;;;;;;;;5033421;28;20448;-60
2021/07/30 12:05:06;;;;;;;2.87;1.77;;;;;;;;;;5032995;28;20487;-59
2021/07/30 12:07:35;;;;;;;2.63;2.10;;;;;;;;;;5033086;28;20453;-59
2021/07/30 12:10:04;;;;;;;3.40;2.80;;;;;;;;;;5033132;28;20488;-59
2021/07/30 12:12:33;;;;;;;3.90;1.87;;;;;;;;;;5032441;28;20510;-58
2021/07/30 12:15:01;;;;;;;7.53;3.27;;;;;;;;;;5032292;28;20937;-59
2021/07/30 12:17:30;;;;;;;14.70;13.20;;;;;;;;;;5032916;28;20949;-60
2021/07/30 12:19:58;;;;;;;3.20;1.97;;;;;;;;;;5033012;28;20471;-59
2021/07/30 12:22:40;;;;;;;4.23;2.23;;;;;;;;;;5032909;28;20527;-59
2021/07/30 12:25:08;;;;;;;4.67;2.17;;;;;;;;;;5032802;28;20484;-58
2021/07/30 12:27:36;;;;;;;8.63;2.27;;;;;;;;;;5033492;28;20455;-60
2021/07/30 12:30:03;;;;;;;3.20;2.40;;;;;;;;;;5036333;28;20479;-58
2021/07/30 12:32:37;;;;;;;4.90;2.40;;;;;;;;;;5037105;28;20453;-59
2021/07/30 12:35:06;;;;;;;5.27;2.00;;;;;;;;;;5037658;28;20425;-60
2021/07/30 12:37:34;;;;;;;4.80;2.17;;;;;;;;;;5037116;28;20525;-59
2021/07/30 12:40:04;;;;;;;3.87;2.07;;;;;;;;;;5036820;28;21000;-59
2021/07/30 12:42:32;;;;;;;3.80;1.83;;;;;;;;;;5036745;28;20435;-59
2021/07/30 12:45:00;;;;;;;2.87;2.03;;;;;;;;;;5036730;28;20446;-60
2021/07/30 12:47:28;;;;;;;5.00;2.40;;;;;;;;;;5037085;28;20503;-60
2021/07/30 12:49:55;;;;;;;6.17;2.27;;;;;;;;;;5036482;28;20496;-59
2021/07/30 12:52:23;;;;;;;4.53;2.17;;;;;;;;;;5035973;28;20446;-59
2021/07/30 12:54:51;;;;;;;2.37;1.93;;;;;;;;;;5036465;28;20799;-59
2021/07/30 12:57:20;;;;;;;6.17;2.10;;;;;;;;;;5036884;28;20809;-60
2021/07/30 12:59:47;;;;;;;4.93;1.90;;;;;;;;;;5036535;28;20582;-59
2021/07/30 13:02:15;;;;;;;2.23;2.00;;;;;;;;;;5036217;28;20857;-59
2021/07/30 13:04:42;;;;;;;3.10;1.77;;;;;;;;;;5036239;28;20516;-60
2021/07/30 13:07:10;;;;;;;3.97;2.10;;;;;;;;;;5036263;28;20508;-59
2021/07/30 13:09:37;;;;;;;2.97;1.87;;;;;;;;;;5036084;28;20479;-59
2021/07/30 13:12:05;;;;;;;3.80;2.03;;;;;;;;;;5036188;28;20451;-59
2021/07/30 13:14:34;;;;;;;3.57;1.80;;;;;;;;;;5036550;28;20444;-59
2021/07/30 13:17:01;;;;;;;5.50;2.60;;;;;;;;;;5036334;28;20443;-59
2021/07/30 13:19:28;;;;;;;2.97;2.57;;;;;;;;;;5036154;28;20466;-58
2021/07/30 13:21:55;;;;;;;4.40;2.07;;;;;;;;;;5036785;28;20546;-59
2021/07/30 13:24:23;;;;;;;4.53;2.73;;;;;;;;;;5036519;28;20452;-59
2021/07/30 13:26:50;;;;;;;3.33;2.13;;;;;;;;;;5036818;28;20523;-57
2021/07/30 13:29:18;;;;;;;3.53;2.57;;;;;;;;;;5039068;28;20506;-58
2021/07/30 13:31:47;;;;;;;4.13;2.27;;;;;;;;;;5046751;28;20458;-58
2021/07/30 13:34:14;;;;;;;4.80;2.20;;;;;;;;;;5041155;28;20853;-58
2021/07/30 13:36:42;;;;;;;4.13;2.30;;;;;;;;;;5036855;28;20451;-59
2021/07/30 13:39:09;;;;;;;5.33;1.90;;;;;;;;;;5036090;28;20508;-60
2021/07/30 13:41:38;;;;;;;4.20;2.40;;;;;;;;;;5036009;28;20473;-59
2021/07/30 13:44:05;;;;;;;4.17;2.50;;;;;;;;;;5036209;28;20506;-60
2021/07/30 13:46:33;;;;;;;2.73;2.00;;;;;;;;;;5035614;28;20456;-59
2021/07/30 13:49:02;;;;;;;3.90;2.30;;;;;;;;;;5035994;28;20490;-59
2021/07/30 13:51:29;;;;;;;2.33;2.10;;;;;;;;;;5051656;22;20576;-56
2021/07/30 13:53:56;;;;;;;3.10;2.00;;;;;;;;;;5035354;28;20522;-56
2021/07/30 13:56:24;;;;;;;3.30;2.23;;;;;;;;;;5034975;28;20509;-56
2021/07/30 13:58:51;;;;;;;3.80;2.37;;;;;;;;;;5034525;28;20567;-55
2021/07/30 14:01:19;;;;;;;2.47;2.00;;;;;;;;;;5034749;28;20466;-56
2021/07/30 14:03:48;;;;;;;6.20;2.60;;;;;;;;;;5035336;28;20450;-56
2021/07/30 14:06:17;;;;;;;2.30;1.83;;;;;;;;;;5034968;28;20450;-57
2021/07/30 14:08:44;;;;;;;4.67;2.30;;;;;;;;;;5034986;28;20458;-55
2021/07/30 14:11:15;;;;;;;3.70;2.80;;;;;;;;;;5034799;28;20486;-56
2021/07/30 14:13:42;;;;;;;3.93;2.17;;;;;;;;;;5034165;28;20452;-57
2021/07/30 14:16:10;;;;;;;3.27;2.07;;;;;;;;;;5034385;28;20458;-56
2021/07/30 14:18:37;;;;;;;3.70;2.43;;;;;;;;;;5034766;28;20448;-56
2021/07/30 14:21:04;;;;;;;2.70;2.13;;;;;;;;;;5034565;28;20496;-58
2021/07/30 14:23:33;;;;;;;2.80;2.17;;;;;;;;;;5034712;28;20469;-56
2021/07/30 14:26:00;;;;;;;2.90;1.93;;;;;;;;;;5034628;28;20497;-56
2021/07/30 14:28:28;;;;;;;6.40;2.40;;;;;;;;;;5034886;28;20442;-56
2021/07/30 14:30:55;;;;;;;4.27;2.40;;;;;;;;;;5034067;28;20520;-56
2021/07/30 14:33:23;;;;;;;4.10;2.20;;;;;;;;;;5034211;28;20442;-56
2021/07/30 14:35:50;;;;;;;4.00;2.70;;;;;;;;;;5034289;28;20450;-55
2021/07/30 14:38:17;;;;;;;3.40;2.10;;;;;;;;;;5034381;28;20508;-56
2021/07/30 14:40:46;;;;;;;2.43;2.23;;;;;;;;;;5033930;28;20466;-56
2021/07/30 14:43:13;;;;;;;3.17;2.23;;;;;;;;;;5034343;28;20459;-56
2021/07/30 14:45:43;;;;;;;5.13;2.23;;;;;;;;;;5034138;28;20520;-56
2021/07/30 14:48:10;;;;;;;3.10;2.10;;;;;;;;;;5034137;28;20444;-56
2021/07/30 14:50:38;;;;;;;7.70;2.87;;;;;;;;;;5033264;28;20559;-55
2021/07/30 14:53:05;;;;;;;5.90;2.77;;;;;;;;;;5033818;28;20450;-55